createdAt,value
2022-11-20T00:00:49.206Z,18.65
2022-11-20T00:03:30.097Z,18.17
2022-11-20T00:06:20.079Z,19.20
2022-11-20T00:09:10.064Z,19.23
2022-11-20T00:11:50.548Z,20.52
2022-11-20T00:14:37.096Z,21.38
2022-11-20T00:17:24.133Z,19.52
2022-11-20T00:20:04.099Z,21.35
2022-11-20T00:22:51.087Z,18.80
2022-11-20T00:25:31.115Z,18.25
2022-11-20T00:28:18.061Z,20.52
2022-11-20T00:30:58.128Z,18.40
2022-11-20T00:33:45.069Z,19.02
2022-11-20T00:36:27.131Z,20.90
2022-11-20T00:39:14.101Z,18.15
2022-11-20T00:41:54.203Z,21.92
2022-11-20T00:44:41.069Z,17.75
2022-11-20T00:47:21.188Z,18.92
2022-11-20T00:50:08.110Z,17.63
2022-11-20T00:52:48.186Z,16.70
2022-11-20T00:55:35.086Z,21.73
2022-11-20T00:58:22.100Z,20.17
2022-11-20T01:01:15.378Z,18.77
2022-11-20T01:03:57.118Z,17.85
2022-11-20T01:06:46.105Z,19.23
2022-11-20T01:09:26.084Z,17.67
2022-11-20T01:12:13.119Z,17.33
2022-11-20T01:14:55.084Z,16.63
2022-11-20T01:17:35.540Z,18.40
2022-11-20T01:20:23.060Z,17.05
2022-11-20T01:23:11.066Z,17.85
2022-11-20T01:25:51.159Z,18.50
2022-11-20T01:28:39.124Z,19.05
2022-11-20T01:31:23.123Z,17.63
2022-11-20T01:34:13.063Z,20.95
2022-11-20T01:37:00.096Z,17.17
2022-11-20T01:39:47.215Z,18.02
2022-11-20T01:42:46.067Z,20.52
2022-11-20T01:45:45.417Z,22.02
2022-11-20T01:48:34.095Z,18.75
2022-11-20T01:51:42.104Z,19.73
2022-11-20T01:54:45.076Z,17.20
2022-11-20T01:57:43.070Z,19.92
2022-11-20T02:00:30.090Z,17.98
2022-11-20T02:03:31.071Z,16.17
2022-11-20T02:06:17.748Z,16.77
2022-11-20T02:09:05.073Z,17.27
2022-11-20T02:11:45.600Z,16.83
2022-11-20T02:14:32.105Z,19.25
2022-11-20T02:17:12.608Z,16.77
2022-11-20T02:19:59.076Z,16.42
2022-11-20T02:23:18.083Z,22.77
2022-11-20T02:26:00.164Z,17.73
2022-11-20T02:28:47.092Z,18.52
2022-11-20T02:31:27.225Z,17.70
2022-11-20T02:34:14.107Z,16.60
2022-11-20T02:36:55.174Z,20.08
2022-11-20T02:39:42.071Z,18.75
2022-11-20T02:42:22.153Z,17.83
2022-11-20T02:45:09.091Z,18.48
2022-11-20T02:47:49.207Z,19.02
2022-11-20T02:50:36.060Z,18.70
2022-11-20T02:53:23.096Z,19.27
2022-11-20T02:56:10.107Z,18.08
2022-11-20T02:58:57.103Z,21.55
2022-11-20T03:01:37.629Z,17.85
2022-11-20T03:04:24.052Z,19.55
2022-11-20T03:07:12.217Z,17.75
2022-11-20T03:09:52.120Z,18.02
2022-11-20T03:12:39.074Z,18.38
2022-11-20T03:15:26.114Z,16.90
2022-11-20T03:18:14.641Z,16.73
2022-11-20T03:20:54.065Z,19.58
2022-11-20T03:23:48.096Z,19.00
2022-11-20T03:26:42.073Z,19.58
2022-11-20T03:29:29.135Z,18.63
2022-11-20T03:32:09.089Z,21.23
2022-11-20T03:34:56.213Z,19.95
2022-11-20T03:37:36.051Z,18.38
2022-11-20T03:40:23.068Z,18.23
2022-11-20T03:43:03.124Z,18.98
2022-11-20T03:45:52.067Z,19.83
2022-11-20T03:48:33.164Z,19.15
2022-11-20T03:51:29.072Z,17.42
2022-11-20T03:54:22.060Z,18.00
2022-11-20T03:57:09.043Z,19.77
2022-11-20T03:59:49.118Z,19.05
2022-11-20T04:02:36.067Z,18.77
2022-11-20T04:05:16.244Z,21.70
2022-11-20T04:08:03.099Z,20.88
2022-11-20T04:10:43.209Z,21.65
2022-11-20T04:13:30.063Z,18.88
2022-11-20T04:16:18.072Z,22.20
2022-11-20T04:19:08.068Z,20.90
2022-11-20T04:21:56.058Z,20.75
2022-11-20T04:24:43.072Z,19.52
2022-11-20T04:27:23.175Z,19.30
2022-11-20T04:30:10.074Z,21.27
2022-11-20T04:32:57.052Z,21.98
2022-11-20T04:35:45.056Z,21.35
2022-11-20T04:38:32.104Z,19.58
2022-11-20T04:41:23.103Z,19.88
2022-11-20T04:44:10.095Z,19.73
2022-11-20T04:46:57.061Z,22.10
2022-11-20T04:49:37.302Z,20.15
2022-11-20T04:52:31.060Z,21.23
2022-11-20T04:55:18.108Z,19.25
2022-11-20T04:57:59.072Z,21.33
2022-11-20T05:00:46.174Z,20.15
2022-11-20T05:03:26.067Z,20.30
2022-11-20T05:06:08.059Z,21.85
2022-11-20T05:08:56.039Z,19.60
2022-11-20T05:11:43.210Z,19.65
2022-11-20T05:14:23.055Z,19.60
2022-11-20T05:17:03.536Z,17.58
2022-11-20T05:19:53.132Z,17.27
2022-11-20T05:22:33.565Z,17.15
2022-11-20T05:25:20.085Z,20.60
2022-11-20T05:28:00.511Z,21.05
2022-11-20T05:30:47.053Z,17.77
2022-11-20T05:33:27.506Z,22.17
2022-11-20T05:36:15.505Z,22.23
2022-11-20T05:39:02.181Z,18.42
2022-11-20T05:41:42.079Z,21.85
2022-11-20T05:44:29.200Z,20.27
2022-11-20T05:47:09.048Z,17.33
2022-11-20T05:49:49.531Z,20.23
2022-11-20T05:52:36.049Z,18.27
2022-11-20T05:55:23.061Z,20.08
2022-11-20T05:58:03.179Z,20.70
2022-11-20T06:00:50.089Z,18.77
2022-11-20T06:03:30.185Z,20.80
2022-11-20T06:06:17.043Z,20.83
2022-11-20T06:09:04.069Z,19.08
2022-11-20T06:11:51.171Z,19.00
2022-11-20T06:14:31.213Z,20.40
2022-11-20T06:17:11.547Z,21.27
2022-11-20T06:19:58.088Z,20.08
2022-11-20T06:22:45.122Z,18.15
2022-11-20T06:25:25.047Z,18.02
2022-11-20T06:28:12.128Z,19.75
2022-11-20T06:30:53.171Z,19.98
2022-11-20T06:33:41.049Z,20.02
2022-11-20T06:36:30.071Z,17.85
2022-11-20T06:39:17.124Z,18.05
2022-11-20T06:41:59.025Z,19.85
2022-11-20T06:44:46.162Z,18.88
2022-11-20T06:47:26.072Z,18.90
2022-11-20T06:50:07.083Z,18.17
2022-11-20T06:52:54.048Z,18.92
2022-11-20T06:55:41.071Z,21.35
2022-11-20T06:58:23.096Z,19.30
2022-11-20T07:01:16.144Z,19.13
2022-11-20T07:03:57.174Z,20.02
2022-11-20T07:06:44.064Z,17.30
2022-11-20T07:09:24.285Z,17.90
2022-11-20T07:12:11.056Z,19.02
2022-11-20T07:14:51.192Z,18.92
2022-11-20T07:17:38.035Z,17.95
2022-11-20T07:20:19.113Z,17.75
2022-11-20T07:23:06.072Z,19.13
2022-11-20T07:25:46.086Z,18.42
2022-11-20T07:28:33.047Z,18.83
2022-11-20T07:31:18.846Z,18.17
2022-11-20T07:34:06.064Z,20.80
2022-11-20T07:36:47.090Z,18.00
2022-11-20T07:39:34.061Z,19.08
2022-11-20T07:42:22.069Z,18.52
2022-11-20T07:45:09.162Z,18.27
2022-11-20T07:47:49.056Z,17.30
2022-11-20T07:50:36.035Z,18.58
2022-11-20T07:53:30.055Z,20.38
2022-11-20T07:56:17.066Z,17.75
2022-11-20T07:59:04.103Z,19.67
2022-11-20T08:01:44.682Z,16.75
2022-11-20T08:04:31.048Z,19.50
2022-11-20T08:07:11.660Z,20.25
2022-11-20T08:09:58.076Z,19.55
2022-11-20T08:13:04.599Z,19.73
2022-11-20T08:15:53.071Z,19.80
2022-11-20T08:18:40.060Z,17.48
2022-11-20T08:21:20.097Z,20.05
2022-11-20T08:24:07.037Z,18.77
2022-11-20T08:26:55.044Z,19.95
2022-11-20T08:29:42.050Z,21.02
2022-11-20T08:32:22.191Z,19.48
2022-11-20T08:35:09.038Z,18.67
2022-11-20T08:37:56.099Z,17.88
2022-11-20T08:41:03.062Z,19.42
2022-11-20T08:43:43.041Z,17.20
2022-11-20T08:46:35.408Z,16.02
2022-11-20T08:49:18.043Z,16.08
2022-11-20T08:52:05.104Z,18.70
2022-11-20T08:54:52.063Z,20.20
2022-11-20T08:57:32.095Z,18.83
2022-11-20T09:00:20.090Z,17.40
2022-11-20T09:03:01.798Z,17.27
2022-11-20T09:05:48.076Z,19.50
2022-11-20T09:08:28.096Z,18.15
2022-11-20T09:11:16.096Z,20.52
2022-11-20T09:13:56.097Z,16.55
2022-11-20T09:16:43.064Z,15.73
2022-11-20T09:19:38.490Z,17.98
2022-11-20T09:22:25.039Z,16.70
2022-11-20T09:25:05.123Z,17.73
2022-11-20T09:27:53.056Z,17.52
2022-11-20T09:30:34.149Z,17.17
2022-11-20T09:33:21.049Z,16.33
2022-11-20T09:36:01.103Z,15.55
2022-11-20T09:38:48.068Z,15.82
2022-11-20T09:41:41.086Z,18.55
2022-11-20T09:45:00.084Z,18.15
2022-11-20T09:48:06.119Z,17.73
2022-11-20T09:51:07.046Z,15.52
2022-11-20T09:54:19.397Z,14.93
2022-11-20T09:57:07.059Z,15.02
2022-11-20T09:59:51.904Z,15.73
2022-11-20T10:02:38.052Z,17.73
2022-11-20T10:05:23.777Z,15.50
2022-11-20T10:08:31.058Z,15.25
2022-11-20T10:11:37.276Z,15.02
2022-11-20T10:14:39.041Z,17.45
2022-11-20T10:17:19.633Z,15.15
2022-11-20T10:20:31.047Z,15.10
2022-11-20T10:23:11.491Z,15.65
2022-11-20T10:26:16.028Z,14.48
2022-11-20T10:29:20.173Z,14.50
2022-11-20T10:32:19.052Z,13.57
2022-11-20T10:35:21.062Z,14.45
2022-11-20T10:38:06.098Z,15.85
2022-11-20T10:40:59.030Z,15.93
2022-11-20T10:43:49.035Z,15.80
2022-11-20T10:46:45.109Z,19.30
2022-11-20T10:49:27.202Z,14.98
2022-11-20T10:52:21.174Z,15.18
2022-11-20T10:55:40.073Z,16.20
2022-11-20T10:58:53.046Z,16.20
2022-11-20T11:01:33.148Z,14.43
2022-11-20T11:04:37.053Z,15.90
2022-11-20T11:07:25.432Z,16.05
2022-11-20T11:10:34.055Z,18.38
2022-11-20T11:13:15.240Z,14.77
2022-11-20T11:18:42.967Z,16.00
2022-11-20T11:21:34.047Z,16.30
2022-11-20T11:24:43.454Z,17.60
2022-11-20T11:27:30.052Z,17.83
2022-11-20T11:30:23.125Z,15.82
2022-11-20T11:33:17.068Z,15.40
2022-11-20T11:36:09.110Z,16.80
2022-11-20T11:39:00.055Z,16.58
2022-11-20T11:41:42.113Z,18.05
2022-11-20T11:44:53.028Z,17.20
2022-11-20T11:47:38.298Z,17.83
2022-11-20T11:50:35.045Z,16.50
2022-11-20T11:53:25.489Z,18.52
2022-11-20T11:56:17.039Z,19.17
2022-11-20T11:59:01.543Z,16.52
2022-11-20T12:02:00.121Z,19.27
2022-11-20T12:05:05.147Z,17.88
2022-11-20T12:07:57.108Z,18.55
2022-11-20T12:10:40.161Z,17.48
2022-11-20T12:13:36.060Z,17.73
2022-11-20T12:16:21.109Z,19.85
2022-11-20T12:19:08.048Z,19.05
2022-11-20T12:22:02.648Z,19.50
2022-11-20T12:25:11.046Z,18.75
2022-11-20T12:28:09.043Z,19.17
2022-11-20T12:31:22.074Z,18.92
2022-11-20T12:34:29.093Z,19.48
2022-11-20T12:37:51.037Z,18.38
2022-11-20T12:40:55.056Z,18.13
2022-11-20T12:44:23.024Z,18.83
2022-11-20T12:47:36.049Z,18.25
2022-11-20T12:54:37.121Z,18.33
2022-11-20T12:57:38.068Z,18.13
2022-11-20T13:00:33.047Z,16.63
2022-11-20T13:03:25.516Z,19.67
2022-11-20T13:06:24.361Z,18.73
2022-11-20T13:09:16.683Z,18.20
2022-11-20T13:12:46.059Z,17.55
2022-11-20T13:16:18.174Z,17.52
2022-11-20T13:19:11.068Z,16.92
2022-11-20T13:21:56.173Z,18.02
2022-11-20T13:24:43.060Z,20.70
2022-11-20T13:27:24.029Z,18.70
2022-11-20T13:36:34.036Z,17.50
2022-11-20T13:39:23.044Z,17.58
2022-11-20T13:42:19.051Z,17.63
2022-11-20T13:45:02.240Z,18.15
2022-11-20T13:47:56.053Z,16.73
2022-11-20T13:50:59.048Z,17.60
2022-11-20T13:54:23.336Z,19.02
2022-11-20T14:03:14.029Z,16.50
2022-11-20T14:06:10.048Z,16.85
2022-11-20T14:08:57.040Z,18.02
2022-11-20T14:11:39.134Z,16.58
2022-11-20T14:14:29.048Z,18.83
2022-11-20T14:17:31.058Z,17.95
2022-11-20T14:20:23.067Z,18.65
2022-11-20T14:23:04.251Z,19.00
2022-11-20T14:25:53.061Z,19.92
2022-11-20T14:28:43.057Z,17.42
2022-11-20T14:31:33.065Z,19.27
2022-11-20T14:34:13.096Z,18.80
2022-11-20T14:37:05.060Z,17.20
2022-11-20T14:39:57.062Z,20.08
2022-11-20T14:42:38.348Z,17.42
2022-11-20T14:48:13.023Z,16.95
2022-11-20T14:50:53.098Z,18.02
2022-11-20T14:53:40.050Z,16.63
2022-11-20T14:56:32.104Z,18.35
2022-11-20T14:59:12.069Z,17.33
2022-11-20T15:02:15.131Z,16.60
2022-11-20T15:04:57.043Z,17.73
2022-11-20T15:07:56.028Z,16.73
2022-11-20T15:10:44.056Z,17.90
2022-11-20T15:13:49.040Z,18.45
2022-11-20T15:16:36.043Z,19.08
2022-11-20T15:19:26.157Z,17.88
2022-11-20T15:22:21.084Z,18.15
2022-11-20T15:25:08.048Z,19.42
2022-11-20T15:28:03.145Z,18.45
2022-11-20T15:30:43.044Z,19.95
2022-11-20T15:33:30.110Z,16.85
2022-11-20T15:36:10.049Z,17.95
2022-11-20T15:38:57.060Z,18.45
2022-11-20T15:41:44.067Z,18.45
2022-11-20T15:44:31.168Z,17.38
2022-11-20T15:47:12.068Z,16.95
2022-11-20T15:49:52.535Z,17.02
2022-11-20T15:52:41.983Z,16.83
2022-11-20T15:55:29.162Z,21.00
2022-11-20T15:58:09.044Z,18.13
2022-11-20T16:00:56.241Z,17.45
2022-11-20T16:03:36.052Z,20.08
2022-11-20T16:06:17.256Z,18.73
2022-11-20T16:11:44.555Z,17.75
2022-11-20T16:14:49.053Z,18.50
2022-11-20T16:17:43.256Z,19.75
2022-11-20T16:20:30.039Z,18.70
2022-11-20T16:23:17.099Z,18.08
2022-11-20T16:25:58.034Z,16.92
2022-11-20T16:31:31.056Z,16.42
2022-11-20T16:34:12.757Z,15.75
2022-11-20T16:39:46.100Z,16.60
2022-11-20T16:42:26.049Z,18.23
2022-11-20T16:45:14.044Z,16.67
2022-11-20T16:47:54.234Z,16.77
2022-11-20T16:50:41.061Z,16.05
2022-11-20T16:53:28.085Z,15.27
2022-11-20T16:56:23.106Z,16.17
2022-11-20T16:59:06.246Z,15.05
2022-11-20T17:01:47.636Z,15.85
2022-11-20T17:04:34.054Z,16.80
2022-11-20T17:07:21.116Z,16.30
2022-11-20T17:10:08.048Z,14.65
2022-11-20T17:12:55.065Z,16.20
2022-11-20T17:15:42.043Z,13.98
2022-11-20T17:18:29.113Z,14.90
2022-11-20T17:21:12.082Z,17.55
2022-11-20T17:23:59.101Z,16.42
2022-11-20T17:26:40.056Z,15.40
2022-11-20T17:32:11.083Z,16.02
2022-11-20T17:34:51.547Z,14.65
2022-11-20T17:37:38.058Z,16.02
2022-11-20T17:40:27.668Z,17.48
2022-11-20T17:43:07.264Z,16.33
2022-11-20T17:45:54.127Z,15.98
2022-11-20T17:48:37.064Z,17.80
2022-11-20T17:51:20.066Z,18.73
2022-11-20T17:54:14.049Z,15.32
2022-11-20T17:57:20.063Z,16.20
2022-11-20T18:00:00.052Z,15.48
2022-11-20T18:02:47.092Z,16.27
2022-11-20T18:05:27.051Z,16.20
2022-11-20T18:08:07.511Z,17.08
2022-11-20T18:10:54.059Z,15.35
2022-11-20T18:14:01.047Z,15.48
2022-11-20T18:16:45.888Z,15.07
2022-11-20T18:19:40.269Z,15.80
2022-11-20T18:22:26.111Z,14.25
2022-11-20T18:25:14.068Z,15.57
2022-11-20T18:28:01.053Z,15.02
2022-11-20T18:30:41.525Z,14.48
2022-11-20T18:33:28.602Z,16.45
2022-11-20T18:36:13.647Z,15.20
2022-11-20T18:39:03.079Z,14.45
2022-11-20T18:42:09.031Z,15.55
2022-11-20T18:44:59.074Z,15.45
2022-11-20T18:47:46.177Z,14.30
2022-11-20T18:50:26.058Z,15.82
2022-11-20T18:53:06.529Z,16.15
2022-11-20T18:55:53.059Z,14.63
2022-11-20T18:58:33.571Z,14.82
2022-11-20T19:01:21.102Z,14.25
2022-11-20T19:04:06.344Z,16.13
2022-11-20T19:07:00.291Z,16.08
2022-11-20T19:09:52.160Z,17.25
2022-11-20T19:12:32.096Z,15.68
2022-11-20T19:15:19.036Z,14.30
2022-11-20T19:18:08.061Z,15.30
2022-11-20T19:20:55.052Z,16.85
2022-11-20T19:23:35.132Z,15.32
2022-11-20T19:26:23.060Z,15.00
2022-11-20T19:29:03.189Z,14.02
2022-11-20T19:31:50.067Z,15.93
2022-11-20T19:34:37.036Z,15.10
2022-11-20T19:37:24.068Z,15.23
2022-11-20T19:40:05.249Z,16.80
2022-11-20T19:45:32.172Z,14.45
2022-11-20T19:48:19.065Z,14.30
2022-11-20T19:50:59.153Z,15.75
2022-11-20T19:53:46.046Z,16.10
2022-11-20T19:56:35.275Z,14.82
2022-11-20T19:59:15.043Z,15.10
2022-11-20T20:02:02.190Z,15.45
2022-11-20T20:04:42.167Z,14.90
2022-11-20T20:07:29.097Z,15.82
2022-11-20T20:10:09.160Z,14.70
2022-11-20T20:12:56.084Z,14.77
2022-11-20T20:15:36.111Z,15.68
2022-11-20T20:18:23.045Z,15.25
2022-11-20T20:21:08.127Z,14.40
2022-11-20T20:23:59.066Z,16.20
2022-11-20T20:26:40.122Z,15.88
2022-11-20T20:32:10.128Z,20.70
2022-11-20T20:34:57.058Z,19.73
2022-11-20T20:37:37.203Z,19.70
2022-11-20T20:40:25.130Z,22.48
2022-11-20T20:43:05.225Z,20.95
2022-11-20T20:45:54.043Z,21.17
2022-11-20T20:48:34.193Z,22.80
2022-11-20T20:51:21.097Z,21.10
2022-11-20T20:54:01.263Z,23.70
2022-11-20T20:56:48.105Z,23.33
2022-11-20T20:59:28.338Z,24.73
2022-11-20T21:02:17.097Z,24.40
2022-11-20T21:04:59.541Z,22.13
2022-11-20T21:08:06.072Z,23.45
2022-11-20T21:10:46.095Z,23.08
2022-11-20T21:13:33.071Z,23.95
2022-11-20T21:16:13.179Z,24.67
2022-11-20T21:19:00.097Z,24.75
2022-11-20T21:21:59.028Z,22.25
2022-11-20T21:24:46.048Z,24.20
2022-11-20T21:27:26.205Z,25.52
2022-11-20T21:30:14.297Z,23.63
2022-11-20T21:33:01.066Z,26.23
2022-11-20T21:35:41.599Z,24.10
2022-11-20T21:38:29.077Z,26.23
2022-11-20T21:41:11.449Z,24.17
2022-11-20T21:44:29.688Z,24.35
2022-11-20T21:47:05.048Z,23.67
2022-11-20T21:49:46.194Z,24.52
2022-11-20T21:52:33.089Z,25.25
2022-11-20T21:55:13.129Z,28.92
2022-11-20T21:58:00.077Z,24.00
2022-11-20T22:00:40.121Z,25.70
2022-11-20T22:03:27.060Z,25.92
2022-11-20T22:06:14.074Z,25.25
2022-11-20T22:09:08.045Z,25.25
2022-11-20T22:11:48.552Z,27.50
2022-11-20T22:14:35.051Z,26.45
2022-11-20T22:17:15.593Z,25.60
2022-11-20T22:20:02.085Z,25.92
2022-11-20T22:22:49.099Z,27.50
2022-11-20T22:25:29.060Z,27.45
2022-11-20T22:28:10.360Z,27.55
2022-11-20T22:30:57.059Z,28.48
2022-11-20T22:33:45.064Z,29.45
2022-11-20T22:36:33.102Z,29.83
2022-11-20T22:39:20.058Z,27.23
2022-11-20T22:42:00.188Z,29.63
2022-11-20T22:44:47.235Z,27.63
2022-11-20T22:47:27.249Z,30.52
2022-11-20T22:50:15.080Z,28.48
2022-11-20T22:52:55.151Z,29.20
2022-11-20T22:55:57.052Z,25.77
2022-11-20T22:58:45.060Z,28.63
2022-11-20T23:01:28.164Z,29.38
2022-11-20T23:04:17.072Z,30.75
2022-11-20T23:07:04.100Z,27.98
2022-11-20T23:09:44.523Z,28.00
2022-11-20T23:12:31.057Z,28.17
2022-11-20T23:15:11.540Z,27.73
2022-11-20T23:17:58.093Z,26.48
2022-11-20T23:20:45.312Z,30.48
2022-11-20T23:23:25.093Z,27.50
2022-11-20T23:26:13.549Z,28.05
2022-11-20T23:29:00.107Z,27.48
2022-11-20T23:31:40.563Z,25.88
2022-11-20T23:34:27.241Z,26.40
2022-11-20T23:37:07.545Z,26.85
2022-11-20T23:39:54.102Z,26.20
2022-11-20T23:43:01.111Z,26.42
2022-11-20T23:45:46.164Z,29.88
2022-11-20T23:48:28.917Z,27.15
2022-11-20T23:51:15.077Z,27.92
2022-11-20T23:54:04.950Z,28.55
2022-11-20T23:56:52.051Z,27.25
2022-11-20T23:59:32.111Z,27.70
